Time;durP1;ratioP1;P1;durP2;ratioP2;P2;SDS_P1;SDS_P2;PMS_P1;PMS_P2;Temp;Humidity;BMP_temperature;BMP_pressure;BME280_temperature;BME280_humidity;BME280_pressure;Samples;Min_cycle;Max_cycle;Signal;HPM_P1;HPM_P2
2022/04/30 00:00:41;;;;;;;17.77;4.80;;;;;;;;;;5037593;28;20139;-77
2022/04/30 00:03:09;;;;;;;19.58;5.60;;;;;;;;;;5039213;28;20026;-77
2022/04/30 00:05:35;;;;;;;14.57;5.82;;;;;;;;;;5037967;28;20045;-78
2022/04/30 00:08:03;;;;;;;19.48;5.75;;;;;;;;;;5037246;28;20057;-79
2022/04/30 00:10:29;;;;;;;24.15;6.22;;;;;;;;;;5037226;28;20029;-78
2022/04/30 00:12:55;;;;;;;12.40;4.95;;;;;;;;;;5039018;28;20036;-79
2022/04/30 00:15:21;;;;;;;18.85;6.00;;;;;;;;;;5039628;28;20030;-78
2022/04/30 00:17:47;;;;;;;17.23;5.65;;;;;;;;;;5037549;28;20049;-77
2022/04/30 00:20:13;;;;;;;17.98;5.70;;;;;;;;;;5043214;28;20025;-77
2022/04/30 00:22:39;;;;;;;26.35;8.98;;;;;;;;;;5052655;28;20013;-79
2022/04/30 00:25:07;;;;;;;20.38;6.78;;;;;;;;;;5050322;28;20026;-77
2022/04/30 00:27:34;;;;;;;16.90;5.72;;;;;;;;;;5049645;28;20010;-77
2022/04/30 00:30:00;;;;;;;20.20;6.20;;;;;;;;;;5053146;28;20429;-77
2022/04/30 00:32:26;;;;;;;19.67;6.07;;;;;;;;;;5056146;28;20025;-76
2022/04/30 00:34:52;;;;;;;23.92;6.13;;;;;;;;;;5055552;28;20076;-78
2022/04/30 00:37:18;;;;;;;14.32;5.28;;;;;;;;;;5054313;28;20037;-78
2022/04/30 00:39:44;;;;;;;16.45;5.47;;;;;;;;;;5058486;28;20053;-77
2022/04/30 00:42:11;;;;;;;21.95;5.22;;;;;;;;;;5042718;28;20018;-78
2022/04/30 00:44:37;;;;;;;19.55;5.80;;;;;;;;;;5042464;28;20033;-77
2022/04/30 00:47:03;;;;;;;22.92;5.82;;;;;;;;;;5041390;28;20026;-77
2022/04/30 00:49:29;;;;;;;19.25;6.30;;;;;;;;;;5048594;28;20116;-79
2022/04/30 00:51:58;;;;;;;22.23;5.95;;;;;;;;;;5041381;28;20057;-78
2022/04/30 00:54:26;;;;;;;18.02;5.93;;;;;;;;;;5043689;28;20026;-77
2022/04/30 00:56:53;;;;;;;27.88;6.60;;;;;;;;;;5041782;28;20026;-78
2022/04/30 00:59:19;;;;;;;16.63;5.50;;;;;;;;;;5047457;28;20033;-77
2022/04/30 01:01:46;;;;;;;18.48;5.47;;;;;;;;;;5050843;28;20016;-76
2022/04/30 01:04:13;;;;;;;17.75;7.00;;;;;;;;;;5052588;28;20097;-77
2022/04/30 01:06:39;;;;;;;16.58;5.70;;;;;;;;;;5044209;28;20132;-77
2022/04/30 01:09:05;;;;;;;20.00;7.53;;;;;;;;;;5044343;28;20033;-75
2022/04/30 01:11:31;;;;;;;17.45;6.22;;;;;;;;;;5045935;28;20017;-77
2022/04/30 01:13:59;;;;;;;23.60;6.43;;;;;;;;;;5039882;28;20044;-77
2022/04/30 01:16:25;;;;;;;20.10;7.00;;;;;;;;;;5039502;28;20036;-78
2022/04/30 01:18:52;;;;;;;18.38;6.53;;;;;;;;;;5045914;28;20038;-77
2022/04/30 01:21:19;;;;;;;24.67;7.63;;;;;;;;;;5047551;28;20389;-77
2022/04/30 01:23:46;;;;;;;24.63;7.63;;;;;;;;;;5043692;28;20097;-77
2022/04/30 01:26:17;;;;;;;17.60;7.95;;;;;;;;;;5041665;28;20025;-78
2022/04/30 01:28:44;;;;;;;25.00;6.75;;;;;;;;;;5043174;28;20080;-79
2022/04/30 01:39:45;;;;;;;18.20;7.47;;;;;;;;;;5035183;28;20053;-79
2022/04/30 01:42:14;;;;;;;22.58;7.05;;;;;;;;;;5038446;28;20025;-78
2022/04/30 01:44:42;;;;;;;21.23;6.75;;;;;;;;;;5036604;28;20013;-76
2022/04/30 01:47:08;;;;;;;19.48;7.22;;;;;;;;;;5037748;28;20041;-79
2022/04/30 01:49:34;;;;;;;17.55;7.32;;;;;;;;;;5038113;28;20033;-76
2022/04/30 01:52:07;;;;;;;20.35;7.88;;;;;;;;;;5036965;28;20036;-78
2022/04/30 01:54:33;;;;;;;19.90;8.35;;;;;;;;;;5037524;28;20109;-80
2022/04/30 01:56:59;;;;;;;22.20;8.75;;;;;;;;;;5040461;28;20076;-79
2022/04/30 01:59:25;;;;;;;21.52;8.77;;;;;;;;;;5040438;28;20033;-78
2022/04/30 02:01:51;;;;;;;19.10;8.73;;;;;;;;;;5039197;28;20038;-77
2022/04/30 02:04:18;;;;;;;18.20;8.88;;;;;;;;;;5040340;28;20029;-77
2022/04/30 02:06:45;;;;;;;25.50;8.98;;;;;;;;;;5042794;28;20033;-78
2022/04/30 02:09:11;;;;;;;19.48;8.68;;;;;;;;;;5042774;28;20075;-76
2022/04/30 02:11:38;;;;;;;31.90;9.73;;;;;;;;;;5041159;28;20037;-78
2022/04/30 02:14:04;;;;;;;27.65;9.88;;;;;;;;;;5042774;28;20025;-77
2022/04/30 02:16:30;;;;;;;22.70;8.38;;;;;;;;;;5043640;28;20022;-79
2022/04/30 02:18:58;;;;;;;17.92;8.68;;;;;;;;;;5047195;28;20025;-77
2022/04/30 02:21:25;;;;;;;18.58;8.05;;;;;;;;;;5049524;28;20025;-77
2022/04/30 02:23:56;;;;;;;25.70;10.00;;;;;;;;;;5050217;28;20032;-77
2022/04/30 02:26:25;;;;;;;21.38;8.95;;;;;;;;;;5043669;28;20037;-78
2022/04/30 02:28:51;;;;;;;22.98;9.23;;;;;;;;;;5039355;28;20024;-79
2022/04/30 02:31:25;;;;;;;27.25;9.48;;;;;;;;;;5037763;28;20037;-76
2022/04/30 02:33:51;;;;;;;23.67;9.20;;;;;;;;;;5038635;28;20021;-79
2022/04/30 02:36:17;;;;;;;20.45;9.85;;;;;;;;;;5038105;28;20498;-76
2022/04/30 02:38:44;;;;;;;18.63;8.93;;;;;;;;;;5036922;28;20509;-77
2022/04/30 02:41:11;;;;;;;26.70;9.48;;;;;;;;;;5037614;28;20097;-79
2022/04/30 02:43:38;;;;;;;22.50;9.00;;;;;;;;;;5042789;28;20518;-77
2022/04/30 02:46:04;;;;;;;20.90;8.63;;;;;;;;;;5044545;28;20036;-77
2022/04/30 02:48:30;;;;;;;21.63;8.80;;;;;;;;;;5050059;28;20017;-77
2022/04/30 02:50:59;;;;;;;18.88;9.55;;;;;;;;;;5046292;28;20104;-77
2022/04/30 02:53:25;;;;;;;27.70;9.57;;;;;;;;;;5044700;28;20422;-78
2022/04/30 02:55:50;;;;;;;22.02;9.27;;;;;;;;;;5036584;28;20033;-77
2022/04/30 03:01:01;;;;;;;27.38;9.43;;;;;;;;;;5036466;28;20473;-78
2022/04/30 03:03:30;;;;;;;18.92;8.82;;;;;;;;;;5037196;28;20030;-77
2022/04/30 03:05:57;;;;;;;15.07;8.40;;;;;;;;;;5036760;28;20021;-76
2022/04/30 03:08:23;;;;;;;22.02;9.27;;;;;;;;;;5037733;28;20398;-77
2022/04/30 03:10:50;;;;;;;22.00;9.32;;;;;;;;;;5037026;28;20386;-77
2022/04/30 03:13:20;;;;;;;25.65;9.13;;;;;;;;;;5035579;28;20029;-78
2022/04/30 03:15:47;;;;;;;19.38;9.13;;;;;;;;;;5036263;28;20025;-77
2022/04/30 03:23:47;;;;;;;22.58;10.02;;;;;;;;;;5035350;28;20028;-77
2022/04/30 03:26:15;;;;;;;21.35;9.63;;;;;;;;;;5034198;28;20108;-78
2022/04/30 03:28:42;;;;;;;19.98;9.48;;;;;;;;;;5033835;28;20027;-77
2022/04/30 03:31:10;;;;;;;23.13;10.25;;;;;;;;;;5036649;28;20471;-78
2022/04/30 03:33:36;;;;;;;25.60;9.38;;;;;;;;;;5037459;28;20494;-76
2022/04/30 03:36:02;;;;;;;26.88;10.18;;;;;;;;;;5037229;28;20029;-76
2022/04/30 03:38:28;;;;;;;20.75;8.85;;;;;;;;;;5038883;28;20021;-77
2022/04/30 03:40:54;;;;;;;24.15;9.52;;;;;;;;;;5037588;28;20105;-78
2022/04/30 03:43:20;;;;;;;19.73;9.48;;;;;;;;;;5034813;28;20026;-78
2022/04/30 03:45:46;;;;;;;24.10;10.27;;;;;;;;;;5033431;28;20386;-76
2022/04/30 03:48:13;;;;;;;27.27;11.35;;;;;;;;;;5033273;28;20026;-78
2022/04/30 03:50:39;;;;;;;21.73;9.85;;;;;;;;;;5033402;28;20025;-77
2022/04/30 03:53:05;;;;;;;20.70;9.27;;;;;;;;;;5035085;28;20025;-77
2022/04/30 03:55:31;;;;;;;20.58;9.55;;;;;;;;;;5033879;28;20030;-78
2022/04/30 03:57:57;;;;;;;24.77;10.27;;;;;;;;;;5033998;28;20026;-76
2022/04/30 04:00:24;;;;;;;18.05;9.52;;;;;;;;;;5034460;28;20473;-76
2022/04/30 04:02:50;;;;;;;22.05;9.68;;;;;;;;;;5045976;28;20022;-79
2022/04/30 04:05:17;;;;;;;20.15;8.98;;;;;;;;;;5044939;28;20081;-77
2022/04/30 04:07:43;;;;;;;22.90;9.52;;;;;;;;;;5040123;28;20022;-77
2022/04/30 04:10:10;;;;;;;18.75;8.35;;;;;;;;;;5038258;28;20028;-79
2022/04/30 04:12:39;;;;;;;25.63;9.27;;;;;;;;;;5036244;28;20033;-77
2022/04/30 04:17:50;;;;;;;23.27;8.82;;;;;;;;;;5039865;28;20501;-77
2022/04/30 04:20:22;;;;;;;17.25;8.60;;;;;;;;;;5040936;28;20087;-78
2022/04/30 04:22:48;;;;;;;25.80;9.18;;;;;;;;;;5037554;28;20079;-77
2022/04/30 04:27:58;;;;;;;17.90;8.23;;;;;;;;;;5037912;28;20087;-77
2022/04/30 04:30:25;;;;;;;15.88;8.05;;;;;;;;;;5039338;28;20030;-77
2022/04/30 04:32:51;;;;;;;18.20;9.15;;;;;;;;;;5037549;28;20048;-76
2022/04/30 04:35:17;;;;;;;15.85;7.95;;;;;;;;;;5039554;28;20504;-77
2022/04/30 04:37:44;;;;;;;16.95;7.97;;;;;;;;;;5024218;28;20022;-77
2022/04/30 04:40:11;;;;;;;17.10;8.23;;;;;;;;;;5061212;23;20056;-73
2022/04/30 04:42:37;;;;;;;20.58;8.63;;;;;;;;;;5043356;28;20021;-75
2022/04/30 04:45:03;;;;;;;16.60;7.22;;;;;;;;;;5044886;28;20025;-74
2022/04/30 04:47:29;;;;;;;18.73;7.40;;;;;;;;;;5057360;28;20018;-77
2022/04/30 04:49:55;;;;;;;20.88;7.38;;;;;;;;;;5052558;28;20097;-72
2022/04/30 04:52:24;;;;;;;16.50;7.85;;;;;;;;;;5045769;28;20032;-72
2022/04/30 04:54:50;;;;;;;16.55;7.70;;;;;;;;;;5038827;28;20028;-73
2022/04/30 04:57:16;;;;;;;14.23;7.05;;;;;;;;;;5037026;28;20026;-74
2022/04/30 04:59:42;;;;;;;17.92;8.75;;;;;;;;;;5038672;28;20021;-73
2022/04/30 05:02:10;;;;;;;15.70;7.28;;;;;;;;;;5037330;28;20025;-72
2022/04/30 05:04:36;;;;;;;19.80;7.10;;;;;;;;;;5038974;28;20022;-72
2022/04/30 05:07:02;;;;;;;23.25;7.57;;;;;;;;;;5038349;28;20052;-73
2022/04/30 05:09:28;;;;;;;15.10;6.53;;;;;;;;;;5038593;28;20025;-72
2022/04/30 05:11:54;;;;;;;16.17;6.40;;;;;;;;;;5039079;28;20026;-72
2022/04/30 05:14:20;;;;;;;13.27;6.20;;;;;;;;;;5044551;28;20040;-73
2022/04/30 05:16:47;;;;;;;15.70;6.53;;;;;;;;;;5049586;28;20030;-75
2022/04/30 05:19:13;;;;;;;11.05;5.65;;;;;;;;;;5046697;28;20025;-74
2022/04/30 05:21:39;;;;;;;14.60;5.85;;;;;;;;;;5042544;28;20022;-75
2022/04/30 05:24:05;;;;;;;12.95;6.00;;;;;;;;;;5038406;28;20072;-73
2022/04/30 05:26:32;;;;;;;16.75;7.47;;;;;;;;;;5040244;28;20025;-75
2022/04/30 05:28:58;;;;;;;20.65;6.97;;;;;;;;;;5040470;28;20032;-74
2022/04/30 05:31:24;;;;;;;15.25;6.10;;;;;;;;;;5042673;28;20033;-75
2022/04/30 05:33:51;;;;;;;14.27;6.22;;;;;;;;;;5042587;28;20045;-73
2022/04/30 05:36:17;;;;;;;20.73;6.70;;;;;;;;;;5041442;28;20029;-74
2022/04/30 05:38:43;;;;;;;20.85;7.40;;;;;;;;;;5040606;28;20029;-74
2022/04/30 05:41:09;;;;;;;15.30;5.75;;;;;;;;;;5041432;28;20069;-75
2022/04/30 05:43:36;;;;;;;19.38;5.97;;;;;;;;;;5041529;28;20021;-74
2022/04/30 05:46:02;;;;;;;13.63;5.93;;;;;;;;;;5041292;28;20481;-77
2022/04/30 05:48:28;;;;;;;14.25;6.30;;;;;;;;;;5039663;28;20025;-75
2022/04/30 05:50:54;;;;;;;16.75;5.65;;;;;;;;;;5038168;28;20522;-75
2022/04/30 05:53:21;;;;;;;11.25;6.00;;;;;;;;;;5037396;28;20079;-74
2022/04/30 05:55:47;;;;;;;14.70;6.18;;;;;;;;;;5037790;28;20101;-72
2022/04/30 05:58:12;;;;;;;11.85;5.85;;;;;;;;;;5036834;28;20441;-73
2022/04/30 06:00:38;;;;;;;19.45;6.13;;;;;;;;;;5036859;28;20417;-74
2022/04/30 06:03:04;;;;;;;9.80;5.60;;;;;;;;;;5036717;28;20021;-72
2022/04/30 06:05:30;;;;;;;16.88;5.82;;;;;;;;;;5036219;28;20309;-73
2022/04/30 06:07:56;;;;;;;13.05;6.35;;;;;;;;;;5036584;28;20030;-73
2022/04/30 06:10:22;;;;;;;16.48;5.88;;;;;;;;;;5036272;28;20033;-73
2022/04/30 06:12:48;;;;;;;17.75;7.05;;;;;;;;;;5035623;28;20021;-73
2022/04/30 06:15:14;;;;;;;15.48;6.25;;;;;;;;;;5035274;28;20031;-74
2022/04/30 06:17:40;;;;;;;15.57;6.25;;;;;;;;;;5036130;28;20117;-74
2022/04/30 06:20:07;;;;;;;18.48;6.55;;;;;;;;;;5036700;28;20026;-74
2022/04/30 06:22:34;;;;;;;8.95;5.88;;;;;;;;;;5035487;28;20449;-74
2022/04/30 06:25:00;;;;;;;13.77;6.18;;;;;;;;;;5033929;28;20394;-74
2022/04/30 06:27:26;;;;;;;16.33;5.72;;;;;;;;;;5036730;28;20049;-71
2022/04/30 06:29:52;;;;;;;18.67;6.35;;;;;;;;;;5036223;28;20034;-73
2022/04/30 06:32:18;;;;;;;11.73;5.57;;;;;;;;;;5036804;28;20047;-72
2022/04/30 06:34:44;;;;;;;12.13;5.45;;;;;;;;;;5037697;28;20032;-73
2022/04/30 06:37:10;;;;;;;17.73;9.20;;;;;;;;;;5035621;28;20029;-71
2022/04/30 06:39:36;;;;;;;19.25;6.70;;;;;;;;;;5033444;28;20081;-71
2022/04/30 06:42:02;;;;;;;18.02;6.13;;;;;;;;;;5034640;28;20079;-71
2022/04/30 06:44:28;;;;;;;13.93;5.38;;;;;;;;;;5035180;28;20482;-72
2022/04/30 06:46:54;;;;;;;11.40;5.43;;;;;;;;;;5036687;28;20029;-72
2022/04/30 06:49:23;;;;;;;15.20;5.63;;;;;;;;;;5035387;28;20033;-72
2022/04/30 06:51:49;;;;;;;15.90;5.75;;;;;;;;;;5035275;28;20466;-72
2022/04/30 06:57:14;;;;;;;10.73;5.68;;;;;;;;;;5034802;28;20116;-73
2022/04/30 06:59:41;;;;;;;14.50;4.95;;;;;;;;;;5034575;28;20453;-74
2022/04/30 07:02:12;;;;;;;10.70;5.35;;;;;;;;;;5034496;28;20013;-72
2022/04/30 07:04:41;;;;;;;12.43;5.53;;;;;;;;;;5033654;28;20541;-72
2022/04/30 07:07:08;;;;;;;11.02;4.88;;;;;;;;;;5034696;28;20471;-72
2022/04/30 07:09:34;;;;;;;12.15;5.13;;;;;;;;;;5035144;28;20029;-72
2022/04/30 07:12:03;;;;;;;11.88;5.07;;;;;;;;;;5037535;28;20098;-72
2022/04/30 07:14:29;;;;;;;14.65;5.38;;;;;;;;;;5039261;28;20022;-72
2022/04/30 07:16:55;;;;;;;13.68;5.18;;;;;;;;;;5040678;28;20411;-72
2022/04/30 07:19:20;;;;;;;9.23;4.60;;;;;;;;;;5036230;28;20029;-73
2022/04/30 07:21:46;;;;;;;10.48;4.57;;;;;;;;;;5034630;28;20053;-72
2022/04/30 07:24:12;;;;;;;22.00;4.82;;;;;;;;;;5034445;28;20033;-73
2022/04/30 07:26:38;;;;;;;10.40;5.13;;;;;;;;;;5036611;28;20035;-75
2022/04/30 07:29:04;;;;;;;12.82;4.95;;;;;;;;;;5034715;28;20021;-73
2022/04/30 07:31:30;;;;;;;11.52;4.97;;;;;;;;;;5034400;28;20410;-72
2022/04/30 07:33:56;;;;;;;9.20;4.57;;;;;;;;;;5034070;28;20513;-71
2022/04/30 07:36:22;;;;;;;13.77;4.65;;;;;;;;;;5033912;28;20030;-70
2022/04/30 07:38:48;;;;;;;13.30;4.88;;;;;;;;;;5037847;28;20022;-71
2022/04/30 07:41:14;;;;;;;13.68;4.78;;;;;;;;;;5038640;28;20029;-72
2022/04/30 07:43:40;;;;;;;15.65;4.63;;;;;;;;;;5038558;28;20044;-72
2022/04/30 07:46:06;;;;;;;16.58;4.53;;;;;;;;;;5038859;28;20466;-72
2022/04/30 07:48:32;;;;;;;10.93;4.60;;;;;;;;;;5038627;28;20040;-72
2022/04/30 07:50:58;;;;;;;9.38;3.95;;;;;;;;;;5038579;28;20033;-73
2022/04/30 07:53:25;;;;;;;11.35;4.45;;;;;;;;;;5038517;28;20026;-73
2022/04/30 07:55:53;;;;;;;7.25;3.70;;;;;;;;;;5038776;28;20048;-72
2022/04/30 07:58:19;;;;;;;11.00;4.25;;;;;;;;;;5038856;28;20037;-72
2022/04/30 08:00:45;;;;;;;14.13;3.88;;;;;;;;;;5039546;28;20160;-73
2022/04/30 08:03:11;;;;;;;8.38;3.70;;;;;;;;;;5038904;28;20088;-72
2022/04/30 08:05:37;;;;;;;7.72;3.72;;;;;;;;;;5038111;28;20030;-72
2022/04/30 08:08:03;;;;;;;9.63;3.90;;;;;;;;;;5040724;28;20025;-76
2022/04/30 08:10:29;;;;;;;10.50;3.55;;;;;;;;;;5039496;28;20056;-73
2022/04/30 08:12:59;;;;;;;10.77;3.83;;;;;;;;;;5040052;28;20071;-74
2022/04/30 08:15:26;;;;;;;9.38;3.00;;;;;;;;;;5041978;28;20034;-73
2022/04/30 08:17:52;;;;;;;4.80;3.00;;;;;;;;;;5046416;28;20398;-73
2022/04/30 08:20:18;;;;;;;6.65;3.30;;;;;;;;;;5048772;28;20078;-73
2022/04/30 08:22:45;;;;;;;10.13;3.65;;;;;;;;;;5046820;28;20028;-71
2022/04/30 08:25:11;;;;;;;10.95;3.47;;;;;;;;;;5044664;28;20076;-74
2022/04/30 08:27:37;;;;;;;8.68;3.05;;;;;;;;;;5045733;28;20017;-74
2022/04/30 08:30:03;;;;;;;11.25;3.60;;;;;;;;;;5045553;28;20084;-74
2022/04/30 08:32:29;;;;;;;7.00;2.38;;;;;;;;;;5041137;28;20076;-72
2022/04/30 08:34:55;;;;;;;5.68;2.35;;;;;;;;;;5040469;28;20029;-74
2022/04/30 08:37:21;;;;;;;11.45;2.90;;;;;;;;;;5042654;28;20025;-73
2022/04/30 08:39:48;;;;;;;14.23;3.40;;;;;;;;;;5040363;28;20017;-74
2022/04/30 08:42:16;;;;;;;10.85;2.80;;;;;;;;;;5037229;28;20020;-74
2022/04/30 08:44:42;;;;;;;11.38;3.30;;;;;;;;;;5037315;28;20113;-74
2022/04/30 08:47:10;;;;;;;12.18;3.15;;;;;;;;;;5038608;28;20057;-74
2022/04/30 08:49:38;;;;;;;10.35;3.15;;;;;;;;;;5039328;28;20033;-74
2022/04/30 08:52:04;;;;;;;9.20;3.03;;;;;;;;;;5038071;28;20056;-75
2022/04/30 08:54:30;;;;;;;9.00;2.60;;;;;;;;;;5039158;28;20038;-73
2022/04/30 08:56:57;;;;;;;9.57;2.47;;;;;;;;;;5041439;28;20106;-76
2022/04/30 08:59:23;;;;;;;15.55;2.97;;;;;;;;;;5040410;28;20091;-75
2022/04/30 09:01:50;;;;;;;5.55;2.30;;;;;;;;;;5040789;28;20030;-74
2022/04/30 09:04:16;;;;;;;8.75;3.08;;;;;;;;;;5040774;28;20029;-75
2022/04/30 09:06:53;;;;;;;8.65;3.33;;;;;;;;;;5039956;28;20025;-74
2022/04/30 09:09:27;;;;;;;9.93;3.67;;;;;;;;;;5038005;28;20445;-74
2022/04/30 09:11:56;;;;;;;7.70;3.22;;;;;;;;;;5039173;28;20098;-74
2022/04/30 09:14:26;;;;;;;11.82;3.70;;;;;;;;;;5038633;28;20029;-73
2022/04/30 09:17:02;;;;;;;9.82;4.55;;;;;;;;;;5040659;28;20060;-74
2022/04/30 09:19:28;;;;;;;14.55;5.22;;;;;;;;;;5038734;28;20441;-75
2022/04/30 09:21:54;;;;;;;12.68;4.82;;;;;;;;;;5038869;28;20021;-74
2022/04/30 09:24:20;;;;;;;12.85;5.22;;;;;;;;;;5039342;28;20371;-74
2022/04/30 09:26:46;;;;;;;9.52;4.90;;;;;;;;;;5039471;28;20083;-73
2022/04/30 09:29:25;;;;;;;12.43;5.20;;;;;;;;;;5038007;28;20085;-74
2022/04/30 09:31:51;;;;;;;12.98;4.55;;;;;;;;;;5036979;28;20056;-73
2022/04/30 09:39:49;;;;;;;12.45;4.45;;;;;;;;;;5036846;28;20087;-74
2022/04/30 09:42:15;;;;;;;8.55;3.58;;;;;;;;;;5037984;28;20022;-73
2022/04/30 09:44:41;;;;;;;11.65;4.40;;;;;;;;;;5036372;28;20026;-73
2022/04/30 09:47:07;;;;;;;11.00;5.55;;;;;;;;;;5034717;28;20025;-72
2022/04/30 09:55:04;;;;;;;7.00;3.60;;;;;;;;;;5036052;28;20075;-74
2022/04/30 09:57:36;;;;;;;7.53;3.67;;;;;;;;;;5035434;28;20111;-74
2022/04/30 10:00:04;;;;;;;14.07;5.00;;;;;;;;;;5035342;28;20028;-73
2022/04/30 10:02:31;;;;;;;7.05;3.70;;;;;;;;;;5034238;28;20105;-73
2022/04/30 10:04:57;;;;;;;13.43;4.78;;;;;;;;;;5035379;28;20057;-74
2022/04/30 10:07:29;;;;;;;12.90;4.80;;;;;;;;;;5033461;28;20041;-71
2022/04/30 10:10:17;;;;;;;10.48;4.57;;;;;;;;;;5035772;28;20057;-74
2022/04/30 10:12:56;;;;;;;10.77;4.28;;;;;;;;;;5034942;28;20025;-72
2022/04/30 10:15:38;;;;;;;7.38;4.15;;;;;;;;;;5033894;28;20496;-71
2022/04/30 10:18:08;;;;;;;10.93;4.70;;;;;;;;;;5035026;28;20075;-75
2022/04/30 10:20:34;;;;;;;11.88;4.40;;;;;;;;;;5033397;28;20091;-73
2022/04/30 10:23:01;;;;;;;9.40;4.20;;;;;;;;;;5035946;28;20103;-74
2022/04/30 10:25:49;;;;;;;14.20;4.63;;;;;;;;;;5034627;28;20036;-74
2022/04/30 10:28:15;;;;;;;11.23;4.78;;;;;;;;;;5034786;28;20025;-73
2022/04/30 10:30:42;;;;;;;8.30;3.65;;;;;;;;;;5035464;28;20097;-72
2022/04/30 10:33:09;;;;;;;8.68;3.90;;;;;;;;;;5033839;28;20047;-73
2022/04/30 10:35:36;;;;;;;9.18;3.78;;;;;;;;;;5032737;28;20433;-73
2022/04/30 10:38:06;;;;;;;7.10;4.20;;;;;;;;;;5033294;28;20029;-72
2022/04/30 10:40:39;;;;;;;8.63;3.75;;;;;;;;;;5079724;22;20090;-75
2022/04/30 10:43:14;;;;;;;6.95;4.00;;;;;;;;;;5052287;28;20026;-75
2022/04/30 10:45:40;;;;;;;10.07;3.42;;;;;;;;;;5050439;28;20029;-75
2022/04/30 10:48:06;;;;;;;8.40;3.17;;;;;;;;;;5050602;28;20049;-75
2022/04/30 10:50:32;;;;;;;7.80;3.40;;;;;;;;;;5035378;28;20040;-75
2022/04/30 10:53:00;;;;;;;11.98;3.95;;;;;;;;;;5053905;28;20116;-75
2022/04/30 10:55:27;;;;;;;8.65;3.88;;;;;;;;;;5056611;28;20025;-75
2022/04/30 10:57:53;;;;;;;12.73;4.22;;;;;;;;;;5057355;28;20032;-76
2022/04/30 11:00:21;;;;;;;8.73;3.55;;;;;;;;;;5037450;28;20064;-75
2022/04/30 11:02:47;;;;;;;9.05;3.55;;;;;;;;;;5037018;28;20045;-74
2022/04/30 11:05:20;;;;;;;6.57;3.17;;;;;;;;;;5051960;28;20049;-75
2022/04/30 11:07:46;;;;;;;13.05;3.58;;;;;;;;;;5033415;28;20025;-75
2022/04/30 11:10:12;;;;;;;7.63;3.17;;;;;;;;;;5023960;28;20501;-75
2022/04/30 11:12:38;;;;;;;10.68;2.95;;;;;;;;;;5033171;28;20061;-76
2022/04/30 11:15:05;;;;;;;7.85;3.03;;;;;;;;;;5033707;28;20029;-75
2022/04/30 11:17:31;;;;;;;5.38;2.75;;;;;;;;;;5033843;28;20128;-75
2022/04/30 11:19:57;;;;;;;9.20;2.63;;;;;;;;;;5015906;28;20017;-76
2022/04/30 11:22:23;;;;;;;5.43;2.80;;;;;;;;;;5033133;28;20025;-75
2022/04/30 11:24:49;;;;;;;9.32;2.50;;;;;;;;;;5034490;28;20028;-76
2022/04/30 11:27:15;;;;;;;6.03;2.90;;;;;;;;;;5033097;28;20393;-76
2022/04/30 11:29:52;;;;;;;7.43;2.75;;;;;;;;;;5033279;28;20033;-76
2022/04/30 11:32:26;;;;;;;7.78;2.97;;;;;;;;;;5033070;28;20032;-75
2022/04/30 11:34:54;;;;;;;9.52;3.72;;;;;;;;;;5032731;28;20031;-75
2022/04/30 11:37:19;;;;;;;3.95;2.55;;;;;;;;;;5015118;28;20030;-75
2022/04/30 11:39:45;;;;;;;8.57;3.40;;;;;;;;;;5032901;28;20032;-75
2022/04/30 11:42:12;;;;;;;5.70;2.95;;;;;;;;;;5033552;28;20032;-75
2022/04/30 11:44:38;;;;;;;6.80;3.20;;;;;;;;;;5033605;28;20025;-76
2022/04/30 11:47:06;;;;;;;5.03;2.58;;;;;;;;;;5034414;28;20171;-76
2022/04/30 11:49:32;;;;;;;5.32;2.70;;;;;;;;;;5034337;28;20474;-76
2022/04/30 11:51:58;;;;;;;9.48;2.90;;;;;;;;;;5034475;28;20036;-75
2022/04/30 11:54:25;;;;;;;9.18;3.50;;;;;;;;;;5017693;28;20225;-76
2022/04/30 11:56:52;;;;;;;6.97;2.97;;;;;;;;;;5035717;28;20049;-76
2022/04/30 11:59:37;;;;;;;8.35;3.60;;;;;;;;;;5035335;28;20045;-77
2022/04/30 12:02:14;;;;;;;8.48;2.85;;;;;;;;;;5040928;28;20028;-76
2022/04/30 12:04:44;;;;;;;5.95;3.13;;;;;;;;;;5034984;28;20083;-77
2022/04/30 12:07:13;;;;;;;11.90;3.05;;;;;;;;;;5035006;28;20080;-78
2022/04/30 12:09:44;;;;;;;7.50;3.20;;;;;;;;;;5020573;28;20555;-78
2022/04/30 12:12:20;;;;;;;10.73;3.03;;;;;;;;;;5040006;28;20021;-80
2022/04/30 12:14:47;;;;;;;6.78;2.95;;;;;;;;;;5024297;28;20052;-81
2022/04/30 12:17:14;;;;;;;7.22;3.10;;;;;;;;;;5039624;28;20071;-80
2022/04/30 12:25:09;;;;;;;9.30;3.97;;;;;;;;;;5047013;28;19923;-80
2022/04/30 12:27:36;;;;;;;10.98;3.55;;;;;;;;;;5043037;28;20287;-78
2022/04/30 12:30:04;;;;;;;6.57;3.00;;;;;;;;;;5042222;28;20109;-79
2022/04/30 12:32:30;;;;;;;9.82;3.67;;;;;;;;;;5043688;28;20037;-79
2022/04/30 12:34:57;;;;;;;6.78;3.13;;;;;;;;;;5043106;28;20064;-81
2022/04/30 12:37:29;;;;;;;11.45;3.85;;;;;;;;;;5042929;28;20030;-79
2022/04/30 12:39:56;;;;;;;6.10;2.30;;;;;;;;;;5041463;28;20033;-78
2022/04/30 12:42:22;;;;;;;8.10;3.47;;;;;;;;;;5043306;28;20025;-77
2022/04/30 12:44:48;;;;;;;6.20;2.83;;;;;;;;;;5023551;28;20505;-79
2022/04/30 12:47:14;;;;;;;5.93;2.63;;;;;;;;;;5041720;28;20033;-77
2022/04/30 12:49:40;;;;;;;6.28;3.00;;;;;;;;;;5041471;28;20107;-77
2022/04/30 12:52:06;;;;;;;3.50;2.53;;;;;;;;;;5041374;28;20030;-78
2022/04/30 12:54:33;;;;;;;6.03;2.55;;;;;;;;;;5023876;28;20031;-77
2022/04/30 12:56:59;;;;;;;7.90;2.65;;;;;;;;;;5042168;28;20026;-79
2022/04/30 12:59:25;;;;;;;6.35;2.60;;;;;;;;;;5042278;28;20068;-78
2022/04/30 13:01:52;;;;;;;11.73;4.10;;;;;;;;;;5040213;28;20021;-77
2022/04/30 13:04:18;;;;;;;7.93;3.65;;;;;;;;;;5040709;28;20021;-78
2022/04/30 13:06:44;;;;;;;9.48;4.97;;;;;;;;;;5041764;28;20076;-80
2022/04/30 13:14:39;;;;;;;8.50;2.60;;;;;;;;;;5041297;28;20041;-77
2022/04/30 13:17:06;;;;;;;7.55;2.97;;;;;;;;;;5040577;28;20029;-76
2022/04/30 13:19:32;;;;;;;10.95;3.90;;;;;;;;;;5021144;28;20037;-77
2022/04/30 13:21:59;;;;;;;10.35;3.33;;;;;;;;;;5021715;28;20049;-77
2022/04/30 13:24:26;;;;;;;7.25;3.38;;;;;;;;;;5040030;28;20081;-77
2022/04/30 13:26:52;;;;;;;7.15;2.80;;;;;;;;;;5038397;28;20028;-76
2022/04/30 13:29:18;;;;;;;5.88;2.92;;;;;;;;;;5039465;28;20036;-76
2022/04/30 13:31:44;;;;;;;7.97;3.25;;;;;;;;;;5039470;28;20026;-77
2022/04/30 13:34:11;;;;;;;5.43;2.67;;;;;;;;;;5038641;28;20032;-76
2022/04/30 13:36:40;;;;;;;8.50;3.13;;;;;;;;;;5038276;28;20028;-77
2022/04/30 13:39:06;;;;;;;9.30;3.00;;;;;;;;;;5038907;28;20042;-78
2022/04/30 13:41:32;;;;;;;7.85;3.00;;;;;;;;;;5039332;28;20040;-76
2022/04/30 13:43:58;;;;;;;7.20;2.67;;;;;;;;;;5039397;28;20429;-76
2022/04/30 13:46:24;;;;;;;10.07;2.67;;;;;;;;;;5037212;28;20105;-75
2022/04/30 13:48:50;;;;;;;6.32;2.45;;;;;;;;;;5039775;28;20064;-77
2022/04/30 13:51:16;;;;;;;8.48;2.75;;;;;;;;;;5038986;28;20032;-77
2022/04/30 13:53:42;;;;;;;5.40;2.90;;;;;;;;;;5038794;28;20029;-75
2022/04/30 13:56:08;;;;;;;11.80;5.03;;;;;;;;;;5020554;28;20466;-77
2022/04/30 13:58:34;;;;;;;6.63;2.90;;;;;;;;;;5037912;28;20021;-77
2022/04/30 14:01:00;;;;;;;6.57;2.67;;;;;;;;;;5020668;28;20024;-77
2022/04/30 14:03:28;;;;;;;14.07;3.63;;;;;;;;;;5038423;28;20439;-76
2022/04/30 14:05:54;;;;;;;5.97;3.03;;;;;;;;;;5020302;28;20033;-77
2022/04/30 14:08:20;;;;;;;6.13;2.67;;;;;;;;;;5021872;28;20059;-77
2022/04/30 14:10:46;;;;;;;11.13;2.80;;;;;;;;;;5039621;28;20085;-82
2022/04/30 14:15:57;;;;;;;9.82;3.33;;;;;;;;;;5038477;28;20072;-77
2022/04/30 14:18:26;;;;;;;8.85;3.65;;;;;;;;;;5019802;28;20044;-76
2022/04/30 14:20:53;;;;;;;7.03;4.10;;;;;;;;;;5035269;28;20034;-76
2022/04/30 14:23:19;;;;;;;7.78;3.85;;;;;;;;;;5018471;28;20021;-76
2022/04/30 14:25:45;;;;;;;7.43;3.30;;;;;;;;;;5018066;28;20029;-77
2022/04/30 14:28:12;;;;;;;10.93;4.93;;;;;;;;;;5034982;28;20017;-76
2022/04/30 14:30:41;;;;;;;14.40;3.47;;;;;;;;;;5018158;28;20021;-77
2022/04/30 14:33:08;;;;;;;12.10;5.32;;;;;;;;;;5035865;28;20052;-76
2022/04/30 14:35:34;;;;;;;9.82;3.65;;;;;;;;;;5034327;28;20509;-76
2022/04/30 14:38:00;;;;;;;9.57;3.30;;;;;;;;;;5034632;28;20448;-76
2022/04/30 14:40:28;;;;;;;7.18;2.83;;;;;;;;;;5018178;28;20041;-77
2022/04/30 14:42:54;;;;;;;6.78;2.72;;;;;;;;;;5035740;28;20141;-78
2022/04/30 14:45:22;;;;;;;9.05;3.78;;;;;;;;;;5017268;28;20052;-76
2022/04/30 14:47:48;;;;;;;15.20;4.95;;;;;;;;;;5017779;28;20021;-76
2022/04/30 14:50:14;;;;;;;6.68;3.53;;;;;;;;;;5036273;28;20049;-77
2022/04/30 14:52:40;;;;;;;7.55;3.53;;;;;;;;;;5017472;28;20376;-77
2022/04/30 14:55:07;;;;;;;7.70;3.22;;;;;;;;;;5036448;28;20389;-76
2022/04/30 14:57:34;;;;;;;10.82;3.30;;;;;;;;;;5016896;28;20033;-76
2022/04/30 15:00:00;;;;;;;8.48;2.90;;;;;;;;;;5019037;28;20029;-77
2022/04/30 15:02:26;;;;;;;7.60;3.20;;;;;;;;;;5035422;28;20040;-77
2022/04/30 15:04:52;;;;;;;10.20;3.28;;;;;;;;;;5036195;28;20033;-77
2022/04/30 15:07:18;;;;;;;13.77;3.55;;;;;;;;;;5035014;28;20048;-76
2022/04/30 15:09:44;;;;;;;8.55;4.15;;;;;;;;;;5036212;28;20033;-76
2022/04/30 15:12:10;;;;;;;8.52;3.40;;;;;;;;;;5041750;28;20125;-77
2022/04/30 15:14:36;;;;;;;12.60;3.67;;;;;;;;;;5043517;28;20029;-76
2022/04/30 15:17:02;;;;;;;5.85;3.03;;;;;;;;;;5045385;28;20076;-77
2022/04/30 15:19:28;;;;;;;9.15;3.97;;;;;;;;;;5037213;28;20033;-77
2022/04/30 15:21:54;;;;;;;7.35;3.10;;;;;;;;;;5054866;28;20045;-75